Weather at Leonard M Thompson International Airport

Public forecast

Using degrees Celsius for public forecast. Weather courtesy of forecast.io.

Closest aviation weather report (METAR) to Leonard M Thompson International Airport

Closest report is Governor's Harbour Airport, 84.1 nm (155.8 km) SSE.

2024/05/26 20:00 (retrieved 36 minutes ago)

MYEM 262000Z AUTO 16007KT 140V200 CAVOK 30/21 Q1014 A2996

Closest aviation forecast (TAF) to Leonard M Thompson International Airport

Closest forecast is Grand Bahama International Airport, 86.6 nm (160.4 km) W.

2024/05/26 18:18 (retrieved 2 hours ago)

TAF MYGF 261709Z 2618/2718 20006KT 9999 VCSH FEW016CB SCT045